sensor_id;sensor_type;location;lat;lon;timestamp;temperature;humidity
8269;DHT22;4174;48.304;16.364;2023-11-18T00:02:52;6.40;99.90
8269;DHT22;4174;48.304;16.364;2023-11-18T00:08:58;6.30;99.90
8269;DHT22;4174;48.304;16.364;2023-11-18T00:15:05;6.30;99.90
8269;DHT22;4174;48.304;16.364;2023-11-18T00:21:20;6.40;99.90
8269;DHT22;4174;48.304;16.364;2023-11-18T00:27:36;6.30;99.90
8269;DHT22;4174;48.304;16.364;2023-11-18T00:33:41;6.30;99.90
8269;DHT22;4174;48.304;16.364;2023-11-18T00:39:47;6.20;99.90
8269;DHT22;4174;48.304;16.364;2023-11-18T00:45:51;6.00;99.90
8269;DHT22;4174;48.304;16.364;2023-11-18T00:52:03;6.10;99.90
8269;DHT22;4174;48.304;16.364;2023-11-18T00:58:09;6.00;99.90
8269;DHT22;4174;48.304;16.364;2023-11-18T01:04:16;5.90;99.90
8269;DHT22;4174;48.304;16.364;2023-11-18T01:10:21;6.00;99.90
8269;DHT22;4174;48.304;16.364;2023-11-18T01:16:28;5.90;99.90
8269;DHT22;4174;48.304;16.364;2023-11-18T01:22:32;5.90;99.90
8269;DHT22;4174;48.304;16.364;2023-11-18T01:28:38;5.80;99.90
8269;DHT22;4174;48.304;16.364;2023-11-18T01:34:44;5.90;99.90
8269;DHT22;4174;48.304;16.364;2023-11-18T01:40:50;5.90;99.90
8269;DHT22;4174;48.304;16.364;2023-11-18T01:46:55;5.90;99.90
8269;DHT22;4174;48.304;16.364;2023-11-18T01:53:04;5.80;99.90
8269;DHT22;4174;48.304;16.364;2023-11-18T01:59:09;5.70;99.90
8269;DHT22;4174;48.304;16.364;2023-11-18T02:05:13;5.70;99.90
8269;DHT22;4174;48.304;16.364;2023-11-18T02:11:30;5.70;99.90
8269;DHT22;4174;48.304;16.364;2023-11-18T02:17:37;5.80;99.90
8269;DHT22;4174;48.304;16.364;2023-11-18T02:23:40;5.50;99.90
8269;DHT22;4174;48.304;16.364;2023-11-18T02:29:44;5.40;99.90
8269;DHT22;4174;48.304;16.364;2023-11-18T02:35:53;5.50;99.90
8269;DHT22;4174;48.304;16.364;2023-11-18T02:41:58;5.30;99.90
8269;DHT22;4174;48.304;16.364;2023-11-18T02:48:03;5.20;99.90
8269;DHT22;4174;48.304;16.364;2023-11-18T02:54:10;5.40;99.90
8269;DHT22;4174;48.304;16.364;2023-11-18T03:00:16;5.40;99.90
8269;DHT22;4174;48.304;16.364;2023-11-18T03:06:23;5.50;99.90
8269;DHT22;4174;48.304;16.364;2023-11-18T03:12:30;5.50;99.90
8269;DHT22;4174;48.304;16.364;2023-11-18T03:18:35;5.50;99.90
8269;DHT22;4174;48.304;16.364;2023-11-18T03:24:42;5.60;99.90
8269;DHT22;4174;48.304;16.364;2023-11-18T03:30:48;5.60;99.90
8269;DHT22;4174;48.304;16.364;2023-11-18T03:36:54;5.60;99.90
8269;DHT22;4174;48.304;16.364;2023-11-18T03:42:58;5.50;99.90
8269;DHT22;4174;48.304;16.364;2023-11-18T03:49:05;5.40;99.90
8269;DHT22;4174;48.304;16.364;2023-11-18T03:55:10;5.60;99.90
8269;DHT22;4174;48.304;16.364;2023-11-18T04:01:20;5.60;99.90
8269;DHT22;4174;48.304;16.364;2023-11-18T04:07:30;5.60;99.90
8269;DHT22;4174;48.304;16.364;2023-11-18T04:13:35;5.50;99.90
8269;DHT22;4174;48.304;16.364;2023-11-18T04:19:41;5.40;99.90
8269;DHT22;4174;48.304;16.364;2023-11-18T04:25:46;5.40;99.90
8269;DHT22;4174;48.304;16.364;2023-11-18T04:31:51;5.40;99.90
8269;DHT22;4174;48.304;16.364;2023-11-18T04:37:57;5.10;99.90
8269;DHT22;4174;48.304;16.364;2023-11-18T04:44:03;5.10;99.90
8269;DHT22;4174;48.304;16.364;2023-11-18T04:50:10;5.20;99.90
8269;DHT22;4174;48.304;16.364;2023-11-18T04:56:14;5.30;99.90
8269;DHT22;4174;48.304;16.364;2023-11-18T05:02:21;5.40;99.90
8269;DHT22;4174;48.304;16.364;2023-11-18T05:08:32;5.50;99.90
8269;DHT22;4174;48.304;16.364;2023-11-18T05:14:38;5.40;99.90
8269;DHT22;4174;48.304;16.364;2023-11-18T05:20:44;5.30;99.90
8269;DHT22;4174;48.304;16.364;2023-11-18T05:26:48;5.30;99.90
8269;DHT22;4174;48.304;16.364;2023-11-18T05:32:56;5.30;99.90
8269;DHT22;4174;48.304;16.364;2023-11-18T05:39:01;5.40;99.90
8269;DHT22;4174;48.304;16.364;2023-11-18T05:45:07;5.40;99.90
8269;DHT22;4174;48.304;16.364;2023-11-18T05:51:18;5.50;99.90
8269;DHT22;4174;48.304;16.364;2023-11-18T05:57:19;5.50;99.90
8269;DHT22;4174;48.304;16.364;2023-11-18T06:03:24;5.50;99.90
8269;DHT22;4174;48.304;16.364;2023-11-18T06:09:31;5.70;99.90
8269;DHT22;4174;48.304;16.364;2023-11-18T06:15:37;5.80;99.90
8269;DHT22;4174;48.304;16.364;2023-11-18T06:21:42;5.70;99.90
8269;DHT22;4174;48.304;16.364;2023-11-18T06:27:47;5.80;99.90
8269;DHT22;4174;48.304;16.364;2023-11-18T06:33:53;5.60;99.90
8269;DHT22;4174;48.304;16.364;2023-11-18T06:40:01;5.60;99.90
8269;DHT22;4174;48.304;16.364;2023-11-18T06:46:07;5.60;99.90
8269;DHT22;4174;48.304;16.364;2023-11-18T06:52:12;5.50;99.90
8269;DHT22;4174;48.304;16.364;2023-11-18T06:58:18;5.50;99.90
8269;DHT22;4174;48.304;16.364;2023-11-18T07:04:23;5.50;99.90
8269;DHT22;4174;48.304;16.364;2023-11-18T07:10:31;5.60;99.90
8269;DHT22;4174;48.304;16.364;2023-11-18T07:16:35;5.60;99.90
8269;DHT22;4174;48.304;16.364;2023-11-18T07:22:43;5.70;99.90
8269;DHT22;4174;48.304;16.364;2023-11-18T07:28:48;5.70;99.90
8269;DHT22;4174;48.304;16.364;2023-11-18T07:34:55;5.80;99.90
8269;DHT22;4174;48.304;16.364;2023-11-18T07:41:27;5.90;99.90
8269;DHT22;4174;48.304;16.364;2023-11-18T07:47:32;5.80;99.90
8269;DHT22;4174;48.304;16.364;2023-11-18T07:53:45;5.90;99.90
8269;DHT22;4174;48.304;16.364;2023-11-18T07:59:52;5.80;99.90
8269;DHT22;4174;48.304;16.364;2023-11-18T08:05:57;6.20;99.90
8269;DHT22;4174;48.304;16.364;2023-11-18T08:12:04;6.00;99.90
8269;DHT22;4174;48.304;16.364;2023-11-18T08:18:11;6.10;99.90
8269;DHT22;4174;48.304;16.364;2023-11-18T08:24:15;6.10;99.90
8269;DHT22;4174;48.304;16.364;2023-11-18T08:30:24;6.30;99.90
8269;DHT22;4174;48.304;16.364;2023-11-18T08:36:31;6.50;99.90
8269;DHT22;4174;48.304;16.364;2023-11-18T08:42:36;6.50;99.90
8269;DHT22;4174;48.304;16.364;2023-11-18T08:48:42;6.50;99.90
8269;DHT22;4174;48.304;16.364;2023-11-18T08:54:48;6.50;99.90
8269;DHT22;4174;48.304;16.364;2023-11-18T09:00:58;6.70;99.90
8269;DHT22;4174;48.304;16.364;2023-11-18T09:07:12;6.90;99.90
8269;DHT22;4174;48.304;16.364;2023-11-18T09:13:18;7.00;99.90
8269;DHT22;4174;48.304;16.364;2023-11-18T09:19:25;7.10;99.90
8269;DHT22;4174;48.304;16.364;2023-11-18T09:25:31;7.50;99.90
8269;DHT22;4174;48.304;16.364;2023-11-18T09:31:42;7.60;99.90
8269;DHT22;4174;48.304;16.364;2023-11-18T09:37:52;7.60;99.90
8269;DHT22;4174;48.304;16.364;2023-11-18T09:43:58;8.00;99.90
8269;DHT22;4174;48.304;16.364;2023-11-18T09:50:07;8.00;99.90
8269;DHT22;4174;48.304;16.364;2023-11-18T09:56:18;7.90;99.90
8269;DHT22;4174;48.304;16.364;2023-11-18T10:02:23;7.90;99.90
8269;DHT22;4174;48.304;16.364;2023-11-18T10:08:27;7.50;99.90
8269;DHT22;4174;48.304;16.364;2023-11-18T10:14:35;7.60;99.90
8269;DHT22;4174;48.304;16.364;2023-11-18T10:20:48;7.80;99.90
8269;DHT22;4174;48.304;16.364;2023-11-18T10:26:55;7.80;99.90
8269;DHT22;4174;48.304;16.364;2023-11-18T10:33:03;7.60;99.90
8269;DHT22;4174;48.304;16.364;2023-11-18T10:39:12;7.50;99.90
8269;DHT22;4174;48.304;16.364;2023-11-18T10:45:22;7.50;99.90
8269;DHT22;4174;48.304;16.364;2023-11-18T10:51:21;7.50;99.90
8269;DHT22;4174;48.304;16.364;2023-11-18T10:57:26;7.60;99.90
8269;DHT22;4174;48.304;16.364;2023-11-18T11:03:34;7.40;99.90
8269;DHT22;4174;48.304;16.364;2023-11-18T11:09:40;7.40;99.90
8269;DHT22;4174;48.304;16.364;2023-11-18T11:15:47;7.30;99.90
8269;DHT22;4174;48.304;16.364;2023-11-18T11:21:55;7.50;99.90
8269;DHT22;4174;48.304;16.364;2023-11-18T11:28:11;7.50;99.90
8269;DHT22;4174;48.304;16.364;2023-11-18T11:34:22;7.40;99.90
8269;DHT22;4174;48.304;16.364;2023-11-18T11:40:27;7.30;99.90
8269;DHT22;4174;48.304;16.364;2023-11-18T11:46:34;7.50;99.90
8269;DHT22;4174;48.304;16.364;2023-11-18T11:52:39;7.50;99.90
8269;DHT22;4174;48.304;16.364;2023-11-18T11:58:44;7.80;99.90
8269;DHT22;4174;48.304;16.364;2023-11-18T12:04:49;7.80;99.90
8269;DHT22;4174;48.304;16.364;2023-11-18T12:10:59;7.80;99.90
8269;DHT22;4174;48.304;16.364;2023-11-18T12:17:06;7.80;99.90
8269;DHT22;4174;48.304;16.364;2023-11-18T12:23:16;7.80;99.90
8269;DHT22;4174;48.304;16.364;2023-11-18T12:29:31;7.70;99.90
8269;DHT22;4174;48.304;16.364;2023-11-18T12:42:05;7.50;99.90
8269;DHT22;4174;48.304;16.364;2023-11-18T12:48:14;7.60;99.90
8269;DHT22;4174;48.304;16.364;2023-11-18T12:54:26;7.70;99.90
8269;DHT22;4174;48.304;16.364;2023-11-18T13:00:31;7.70;99.90
8269;DHT22;4174;48.304;16.364;2023-11-18T13:06:39;7.80;99.90
8269;DHT22;4174;48.304;16.364;2023-11-18T13:12:45;7.80;99.90
8269;DHT22;4174;48.304;16.364;2023-11-18T13:18:52;7.70;99.90
8269;DHT22;4174;48.304;16.364;2023-11-18T13:24:59;7.50;99.90
8269;DHT22;4174;48.304;16.364;2023-11-18T13:31:07;7.50;99.90
8269;DHT22;4174;48.304;16.364;2023-11-18T13:37:12;7.50;99.90
8269;DHT22;4174;48.304;16.364;2023-11-18T13:43:18;7.50;99.90
8269;DHT22;4174;48.304;16.364;2023-11-18T13:49:27;7.50;99.90
8269;DHT22;4174;48.304;16.364;2023-11-18T13:55:30;7.60;99.90
8269;DHT22;4174;48.304;16.364;2023-11-18T14:01:36;7.50;99.90
8269;DHT22;4174;48.304;16.364;2023-11-18T14:07:40;7.50;99.90
8269;DHT22;4174;48.304;16.364;2023-11-18T14:13:45;7.70;99.90
8269;DHT22;4174;48.304;16.364;2023-11-18T14:19:51;7.60;99.90
8269;DHT22;4174;48.304;16.364;2023-11-18T14:25:55;7.40;99.90
8269;DHT22;4174;48.304;16.364;2023-11-18T14:32:01;7.50;99.90
8269;DHT22;4174;48.304;16.364;2023-11-18T14:38:09;7.50;99.90
8269;DHT22;4174;48.304;16.364;2023-11-18T14:44:15;7.40;99.90
8269;DHT22;4174;48.304;16.364;2023-11-18T14:50:21;7.40;99.90
8269;DHT22;4174;48.304;16.364;2023-11-18T14:56:26;7.50;99.90
8269;DHT22;4174;48.304;16.364;2023-11-18T15:02:31;7.50;99.90
8269;DHT22;4174;48.304;16.364;2023-11-18T15:08:37;7.40;99.90
8269;DHT22;4174;48.304;16.364;2023-11-18T15:14:44;7.30;99.90
8269;DHT22;4174;48.304;16.364;2023-11-18T15:20:49;7.30;99.90
8269;DHT22;4174;48.304;16.364;2023-11-18T15:26:55;7.20;99.90
8269;DHT22;4174;48.304;16.364;2023-11-18T15:33:00;7.00;99.90
8269;DHT22;4174;48.304;16.364;2023-11-18T15:39:06;7.00;99.90
8269;DHT22;4174;48.304;16.364;2023-11-18T15:45:12;7.10;99.90
8269;DHT22;4174;48.304;16.364;2023-11-18T15:51:16;6.90;99.90
8269;DHT22;4174;48.304;16.364;2023-11-18T15:57:20;6.90;99.90
8269;DHT22;4174;48.304;16.364;2023-11-18T16:03:31;7.00;99.90
8269;DHT22;4174;48.304;16.364;2023-11-18T16:09:35;6.80;99.90
8269;DHT22;4174;48.304;16.364;2023-11-18T16:15:39;6.80;99.90
8269;DHT22;4174;48.304;16.364;2023-11-18T16:21:43;6.90;99.90
8269;DHT22;4174;48.304;16.364;2023-11-18T16:27:47;6.80;99.90
8269;DHT22;4174;48.304;16.364;2023-11-18T16:33:50;6.90;99.90
8269;DHT22;4174;48.304;16.364;2023-11-18T16:39:55;6.90;99.90
8269;DHT22;4174;48.304;16.364;2023-11-18T16:46:00;6.80;99.90
8269;DHT22;4174;48.304;16.364;2023-11-18T16:52:06;6.90;99.90
8269;DHT22;4174;48.304;16.364;2023-11-18T16:58:10;6.90;99.90
8269;DHT22;4174;48.304;16.364;2023-11-18T17:04:16;6.90;99.90
8269;DHT22;4174;48.304;16.364;2023-11-18T17:10:22;6.90;99.90
8269;DHT22;4174;48.304;16.364;2023-11-18T17:16:28;6.90;99.90
8269;DHT22;4174;48.304;16.364;2023-11-18T17:22:33;6.90;99.90
8269;DHT22;4174;48.304;16.364;2023-11-18T17:28:39;6.80;99.90
8269;DHT22;4174;48.304;16.364;2023-11-18T17:34:46;6.70;99.90
8269;DHT22;4174;48.304;16.364;2023-11-18T17:40:51;6.70;99.90
8269;DHT22;4174;48.304;16.364;2023-11-18T17:46:56;6.70;99.90
8269;DHT22;4174;48.304;16.364;2023-11-18T17:53:00;6.60;99.90
8269;DHT22;4174;48.304;16.364;2023-11-18T17:59:06;6.50;99.90
8269;DHT22;4174;48.304;16.364;2023-11-18T18:05:10;6.50;99.90
8269;DHT22;4174;48.304;16.364;2023-11-18T18:11:18;6.40;99.90
8269;DHT22;4174;48.304;16.364;2023-11-18T18:17:24;6.40;99.90
8269;DHT22;4174;48.304;16.364;2023-11-18T18:23:31;6.40;99.90
8269;DHT22;4174;48.304;16.364;2023-11-18T18:29:35;6.30;99.90
8269;DHT22;4174;48.304;16.364;2023-11-18T18:35:39;6.20;99.90
8269;DHT22;4174;48.304;16.364;2023-11-18T18:41:43;6.10;99.90
8269;DHT22;4174;48.304;16.364;2023-11-18T18:47:47;6.00;99.90
8269;DHT22;4174;48.304;16.364;2023-11-18T18:53:50;5.90;99.90
8269;DHT22;4174;48.304;16.364;2023-11-18T18:59:54;5.90;99.90
8269;DHT22;4174;48.304;16.364;2023-11-18T19:05:58;5.80;99.90
8269;DHT22;4174;48.304;16.364;2023-11-18T19:12:01;5.60;99.90
8269;DHT22;4174;48.304;16.364;2023-11-18T19:18:04;5.50;99.90
8269;DHT22;4174;48.304;16.364;2023-11-18T19:24:08;5.20;99.90
8269;DHT22;4174;48.304;16.364;2023-11-18T19:30:11;5.20;99.90
8269;DHT22;4174;48.304;16.364;2023-11-18T19:36:14;5.10;99.90
8269;DHT22;4174;48.304;16.364;2023-11-18T19:42:18;4.90;99.90
8269;DHT22;4174;48.304;16.364;2023-11-18T19:48:21;4.80;99.90
8269;DHT22;4174;48.304;16.364;2023-11-18T19:54:24;4.70;99.90
8269;DHT22;4174;48.304;16.364;2023-11-18T20:00:29;4.60;99.90
8269;DHT22;4174;48.304;16.364;2023-11-18T20:06:31;4.50;99.90
8269;DHT22;4174;48.304;16.364;2023-11-18T20:12:34;4.40;99.90
8269;DHT22;4174;48.304;16.364;2023-11-18T20:18:38;4.30;99.90
8269;DHT22;4174;48.304;16.364;2023-11-18T20:24:42;4.20;99.90
8269;DHT22;4174;48.304;16.364;2023-11-18T20:30:45;4.10;99.90
8269;DHT22;4174;48.304;16.364;2023-11-18T20:36:49;3.90;99.90
8269;DHT22;4174;48.304;16.364;2023-11-18T20:42:52;3.70;99.90
8269;DHT22;4174;48.304;16.364;2023-11-18T20:48:57;3.70;99.90
8269;DHT22;4174;48.304;16.364;2023-11-18T20:55:01;3.70;99.90
8269;DHT22;4174;48.304;16.364;2023-11-18T21:01:05;3.70;99.90
8269;DHT22;4174;48.304;16.364;2023-11-18T21:07:08;3.70;99.90
8269;DHT22;4174;48.304;16.364;2023-11-18T21:13:12;3.60;99.90
8269;DHT22;4174;48.304;16.364;2023-11-18T21:19:16;3.60;99.90
8269;DHT22;4174;48.304;16.364;2023-11-18T21:25:19;3.60;99.90
8269;DHT22;4174;48.304;16.364;2023-11-18T21:31:23;3.50;99.90
8269;DHT22;4174;48.304;16.364;2023-11-18T21:37:27;3.40;99.90
8269;DHT22;4174;48.304;16.364;2023-11-18T21:43:30;3.40;99.90
8269;DHT22;4174;48.304;16.364;2023-11-18T21:49:34;3.50;99.90
8269;DHT22;4174;48.304;16.364;2023-11-18T21:55:37;3.40;99.90
8269;DHT22;4174;48.304;16.364;2023-11-18T22:01:41;3.30;99.90
8269;DHT22;4174;48.304;16.364;2023-11-18T22:07:44;3.50;99.90
8269;DHT22;4174;48.304;16.364;2023-11-18T22:13:47;3.60;99.90
8269;DHT22;4174;48.304;16.364;2023-11-18T22:19:50;3.70;99.90
8269;DHT22;4174;48.304;16.364;2023-11-18T22:25:53;3.70;99.90
8269;DHT22;4174;48.304;16.364;2023-11-18T22:31:57;3.70;99.90
8269;DHT22;4174;48.304;16.364;2023-11-18T22:38:01;3.70;99.90
8269;DHT22;4174;48.304;16.364;2023-11-18T22:44:05;3.70;99.90
8269;DHT22;4174;48.304;16.364;2023-11-18T22:50:09;3.70;99.90
8269;DHT22;4174;48.304;16.364;2023-11-18T22:56:14;3.70;99.90
8269;DHT22;4174;48.304;16.364;2023-11-18T23:02:17;3.90;99.90
8269;DHT22;4174;48.304;16.364;2023-11-18T23:08:21;4.10;99.90
8269;DHT22;4174;48.304;16.364;2023-11-18T23:14:25;4.20;99.90
8269;DHT22;4174;48.304;16.364;2023-11-18T23:20:28;4.20;99.90
8269;DHT22;4174;48.304;16.364;2023-11-18T23:26:32;4.10;99.90
8269;DHT22;4174;48.304;16.364;2023-11-18T23:32:36;4.20;99.90
8269;DHT22;4174;48.304;16.364;2023-11-18T23:38:39;4.30;99.90
8269;DHT22;4174;48.304;16.364;2023-11-18T23:44:43;4.50;99.90
8269;DHT22;4174;48.304;16.364;2023-11-18T23:50:47;4.70;99.90
8269;DHT22;4174;48.304;16.364;2023-11-18T23:56:50;4.70;99.90
